Stephenville Crossing, Canada
Current Conditions -  °F | °C
As of 12:00 AM on Thursday 23 Oct 2014 (Local Time) from CYJT Reporting Station
Clear Clear  
Wind Chill: 31°   Ceiling: Unl
Heat Index: 36°   Visibility: 15mi
Dew Point: 34°   Wind: 6mph
Humidity: 93%   Direction: 360°N
Pressure: 30.44"   Gusts: NA
Location:  48.52°N, 58.42°W
Report Text: CYJT 230200Z 36005KT 15SM SKC 02/01 A3044 RMK SLP308
Loading
Personal Weather Stations






























Interactive Weather Map
Tropical Storm Tracking
New forecast layout! Learn more

10-Day Weather Forecast

Advertisements
Track Severe Weather on mobile